createdAt,value
2023-02-18T00:01:51.686Z,7.03
2023-02-18T00:04:19.618Z,14.97
2023-02-18T00:06:47.663Z,16.70
2023-02-18T00:09:15.520Z,10.17
2023-02-18T00:11:43.601Z,15.13
2023-02-18T00:14:17.418Z,13.60
2023-02-18T00:16:46.080Z,9.03
2023-02-18T00:19:19.465Z,25.50
2023-02-18T00:21:47.958Z,13.73
2023-02-18T00:24:17.096Z,12.60
2023-02-18T00:26:45.637Z,6.93
2023-02-18T00:29:13.584Z,17.97
2023-02-18T00:31:41.703Z,12.00
2023-02-18T00:34:12.298Z,18.70
2023-02-18T00:36:41.084Z,12.03
2023-02-18T00:39:11.364Z,15.93
2023-02-18T00:41:40.126Z,14.63
2023-02-18T00:44:09.290Z,22.40
2023-02-18T00:46:40.820Z,8.20
2023-02-18T00:49:09.797Z,20.33
2023-02-18T00:51:37.804Z,6.63
2023-02-18T00:54:05.810Z,10.00
2023-02-18T00:56:33.901Z,11.90
2023-02-18T00:59:01.842Z,19.90
2023-02-18T01:01:29.860Z,14.17
2023-02-18T01:03:57.974Z,8.67
2023-02-18T01:06:25.868Z,11.40
2023-02-18T01:08:53.864Z,13.93
2023-02-18T01:11:21.713Z,14.60
2023-02-18T01:13:49.740Z,24.30
2023-02-18T01:16:18.059Z,13.27
2023-02-18T01:18:45.996Z,13.07
2023-02-18T01:21:14.067Z,12.30
2023-02-18T01:23:42.560Z,20.07
2023-02-18T01:26:11.636Z,11.77
2023-02-18T01:28:41.608Z,9.00
2023-02-18T01:31:13.415Z,16.10
2023-02-18T01:33:42.670Z,12.67
2023-02-18T01:36:11.999Z,10.80
2023-02-18T01:38:40.058Z,10.30
2023-02-18T01:41:08.584Z,15.80
2023-02-18T01:43:37.386Z,10.03
2023-02-18T01:46:22.370Z,11.57
2023-02-18T01:49:00.277Z,13.93
2023-02-18T01:51:43.624Z,7.53
2023-02-18T01:54:27.416Z,6.80
2023-02-18T01:57:04.942Z,12.93
2023-02-18T01:59:48.822Z,12.73
2023-02-18T02:02:28.474Z,16.00
2023-02-18T02:04:57.143Z,13.53
2023-02-18T02:07:28.622Z,18.50
2023-02-18T02:09:59.737Z,13.70
2023-02-18T02:13:19.221Z,14.53
2023-02-18T02:16:19.343Z,9.37
2023-02-18T02:19:31.028Z,16.83
2023-02-18T02:22:15.924Z,11.40
2023-02-18T02:25:12.271Z,8.57
2023-02-18T02:28:10.420Z,13.97
2023-02-18T02:31:15.936Z,11.93
2023-02-18T02:34:52.956Z,8.40
2023-02-18T02:37:29.232Z,14.63
2023-02-18T02:40:21.149Z,16.53
2023-02-18T02:43:22.215Z,13.03
2023-02-18T02:46:17.664Z,13.07
2023-02-18T02:49:03.280Z,17.07
2023-02-18T02:52:05.562Z,13.63
2023-02-18T02:54:33.556Z,12.27
2023-02-18T02:57:30.390Z,9.90
2023-02-18T03:00:10.014Z,12.37
2023-02-18T03:03:33.515Z,7.60
2023-02-18T03:06:41.465Z,17.80
2023-02-18T03:09:47.111Z,23.90
2023-02-18T03:12:51.909Z,8.00
2023-02-18T03:15:47.876Z,9.17
2023-02-18T03:18:33.083Z,10.23
2023-02-18T03:21:33.110Z,14.70
2023-02-18T03:24:17.955Z,15.50
2023-02-18T03:26:56.228Z,10.07
2023-02-18T03:29:25.983Z,13.40
2023-02-18T03:32:03.012Z,8.97
2023-02-18T03:34:38.226Z,14.77
2023-02-18T03:37:07.322Z,12.10
2023-02-18T03:39:37.992Z,21.53
2023-02-18T03:42:06.102Z,14.37
2023-02-18T03:44:33.990Z,12.93
2023-02-18T03:47:02.234Z,21.77
2023-02-18T03:49:30.229Z,12.77
2023-02-18T03:51:58.103Z,11.00
2023-02-18T03:54:25.967Z,13.63
2023-02-18T03:56:54.865Z,10.43
2023-02-18T03:59:22.778Z,16.43
2023-02-18T04:01:50.643Z,14.60
2023-02-18T04:04:18.595Z,12.27
2023-02-18T04:06:46.541Z,16.27
2023-02-18T04:09:14.484Z,8.03
2023-02-18T04:11:42.548Z,13.10
2023-02-18T04:14:13.521Z,8.27
2023-02-18T04:16:42.618Z,8.50
2023-02-18T04:19:10.946Z,11.50
2023-02-18T04:21:38.852Z,15.30
2023-02-18T04:24:06.910Z,14.20
2023-02-18T04:26:34.805Z,12.27
2023-02-18T04:29:02.806Z,8.60
2023-02-18T04:31:30.777Z,9.43
2023-02-18T04:33:58.776Z,9.97
2023-02-18T04:36:27.161Z,10.93
2023-02-18T04:38:55.008Z,7.13
2023-02-18T04:41:23.025Z,4.40
2023-02-18T04:43:50.937Z,7.47
2023-02-18T04:46:18.876Z,10.07
2023-02-18T04:48:46.853Z,6.17
2023-02-18T04:51:14.757Z,16.07
2023-02-18T04:53:42.879Z,14.37
2023-02-18T04:56:12.946Z,8.97
2023-02-18T04:58:40.801Z,13.67
2023-02-18T05:01:08.704Z,9.27
2023-02-18T05:03:36.594Z,12.40
2023-02-18T05:06:04.930Z,9.87
2023-02-18T05:08:32.901Z,7.40
2023-02-18T05:11:00.778Z,11.93
2023-02-18T05:13:28.629Z,7.90
2023-02-18T05:15:56.464Z,7.43
2023-02-18T05:18:24.382Z,12.03
2023-02-18T05:20:52.204Z,10.13
2023-02-18T05:23:21.304Z,9.13
2023-02-18T05:25:49.230Z,7.97
2023-02-18T05:28:17.250Z,8.17
2023-02-18T05:30:45.111Z,3.73
2023-02-18T05:33:13.283Z,11.90
2023-02-18T05:35:41.344Z,14.60
2023-02-18T05:38:09.979Z,8.90
2023-02-18T05:40:38.858Z,9.23
2023-02-18T05:43:06.822Z,6.40
2023-02-18T05:45:36.064Z,8.60
2023-02-18T05:48:04.543Z,8.57
2023-02-18T05:50:32.904Z,7.63
2023-02-18T05:53:00.790Z,6.53
2023-02-18T05:55:28.752Z,17.23
2023-02-18T05:57:56.791Z,9.30
2023-02-18T06:00:25.476Z,8.90
2023-02-18T06:02:53.435Z,12.63
2023-02-18T06:05:21.315Z,6.23
2023-02-18T06:07:49.280Z,6.60
2023-02-18T06:10:18.444Z,7.13
2023-02-18T06:12:46.576Z,2.13
2023-02-18T06:15:14.411Z,6.73
2023-02-18T06:17:42.286Z,11.00
2023-02-18T06:20:11.198Z,7.67
2023-02-18T06:22:39.083Z,16.83
2023-02-18T06:25:07.368Z,8.43
2023-02-18T06:27:35.232Z,18.17
2023-02-18T06:30:03.400Z,10.57
2023-02-18T06:32:31.229Z,10.53
2023-02-18T06:34:59.100Z,5.60
2023-02-18T06:37:27.061Z,10.13
2023-02-18T06:39:54.949Z,3.67
2023-02-18T06:42:22.790Z,9.43
2023-02-18T06:44:52.953Z,9.83
2023-02-18T06:47:21.215Z,10.03
2023-02-18T06:49:49.114Z,7.70
2023-02-18T06:52:16.942Z,11.33
2023-02-18T06:54:46.021Z,8.43
2023-02-18T06:57:13.904Z,9.80
2023-02-18T06:59:41.820Z,12.07
2023-02-18T07:02:13.362Z,8.17
2023-02-18T07:04:41.308Z,6.33
2023-02-18T07:07:09.154Z,9.03
2023-02-18T07:09:37.092Z,5.93
2023-02-18T07:12:05.545Z,8.67
2023-02-18T07:14:33.403Z,11.20
2023-02-18T07:17:01.346Z,6.37
2023-02-18T07:19:29.209Z,9.13
2023-02-18T07:21:57.771Z,5.63
2023-02-18T07:24:25.988Z,6.77
2023-02-18T07:26:53.820Z,4.50
2023-02-18T07:29:21.721Z,9.23
2023-02-18T07:31:49.820Z,12.43
2023-02-18T07:34:17.759Z,8.30
2023-02-18T07:36:48.839Z,5.23
2023-02-18T07:39:20.664Z,7.60
2023-02-18T07:41:48.806Z,5.47
2023-02-18T07:44:16.780Z,5.70
2023-02-18T07:46:47.221Z,5.77
2023-02-18T07:49:15.548Z,2.73
2023-02-18T07:51:43.460Z,4.90
2023-02-18T07:54:11.313Z,5.70
2023-02-18T07:56:39.388Z,4.47
2023-02-18T07:59:07.326Z,6.60
2023-02-18T08:01:35.241Z,8.40
2023-02-18T08:04:03.602Z,5.63
2023-02-18T08:06:46.173Z,5.17
2023-02-18T08:09:15.660Z,2.73
2023-02-18T08:11:44.684Z,5.73
2023-02-18T08:14:12.910Z,5.93
2023-02-18T08:16:40.994Z,7.57
2023-02-18T08:19:09.059Z,6.03
2023-02-18T08:21:36.919Z,4.73
2023-02-18T08:24:05.061Z,4.20
2023-02-18T08:26:33.013Z,7.67
2023-02-18T08:29:00.891Z,4.87
2023-02-18T08:31:31.156Z,6.63
2023-02-18T08:34:00.962Z,7.23
2023-02-18T08:36:29.559Z,6.83
2023-02-18T08:38:58.385Z,3.83
2023-02-18T08:41:26.382Z,7.73
2023-02-18T08:43:54.547Z,8.27
2023-02-18T08:46:27.283Z,7.77
2023-02-18T08:49:04.658Z,6.30
2023-02-18T08:51:32.673Z,2.33
2023-02-18T08:54:00.618Z,5.77
2023-02-18T08:56:28.518Z,8.23
2023-02-18T08:58:56.370Z,4.20
2023-02-18T09:01:24.322Z,4.87
2023-02-18T09:03:52.330Z,5.03
2023-02-18T09:06:20.273Z,3.07
2023-02-18T09:08:48.319Z,5.70
2023-02-18T09:11:17.772Z,3.07
2023-02-18T09:13:46.584Z,6.93
2023-02-18T09:16:18.604Z,5.60
2023-02-18T09:18:48.186Z,5.53
2023-02-18T09:21:20.590Z,3.93
2023-02-18T09:23:49.907Z,3.37
2023-02-18T09:26:22.941Z,6.30
2023-02-18T09:28:53.169Z,8.23
2023-02-18T09:31:25.893Z,5.93
2023-02-18T09:34:02.963Z,6.70
2023-02-18T09:36:31.652Z,7.17
2023-02-18T09:38:59.829Z,8.60
2023-02-18T09:41:48.914Z,10.50
2023-02-18T09:44:40.057Z,11.73
2023-02-18T09:47:45.006Z,9.97
2023-02-18T09:50:33.734Z,13.07
2023-02-18T09:53:03.979Z,17.03
2023-02-18T09:55:40.990Z,14.03
2023-02-18T09:58:25.078Z,6.73
2023-02-18T10:01:11.203Z,10.67
2023-02-18T10:03:40.545Z,15.63
2023-02-18T10:06:25.494Z,9.53
2023-02-18T10:08:55.283Z,9.67
2023-02-18T10:11:39.881Z,8.00
2023-02-18T10:14:14.522Z,11.70
2023-02-18T10:16:46.057Z,13.80
2023-02-18T10:19:38.388Z,8.47
2023-02-18T10:22:09.536Z,7.07
2023-02-18T10:25:05.944Z,11.60
2023-02-18T10:27:38.856Z,13.03
2023-02-18T10:30:51.296Z,12.33
2023-02-18T10:33:35.926Z,13.63
2023-02-18T10:36:38.772Z,15.37
2023-02-18T10:39:32.212Z,11.80
2023-02-18T10:42:39.816Z,17.47
2023-02-18T10:45:53.019Z,10.63
2023-02-18T10:48:28.493Z,10.37
2023-02-18T10:50:59.800Z,12.47
2023-02-18T10:53:40.427Z,12.23
2023-02-18T10:56:09.320Z,17.77
2023-02-18T10:58:47.028Z,9.73
2023-02-18T11:01:21.198Z,10.53
2023-02-18T11:04:15.118Z,16.57
2023-02-18T11:06:51.323Z,25.17
2023-02-18T11:10:16.896Z,13.47
2023-02-18T11:12:56.243Z,21.63
2023-02-18T11:15:29.469Z,22.47
2023-02-18T11:18:13.414Z,12.07
2023-02-18T11:20:41.555Z,12.27
2023-02-18T11:23:21.849Z,11.93
2023-02-18T11:26:12.047Z,9.93
2023-02-18T11:28:51.451Z,10.83
2023-02-18T11:31:48.079Z,13.07
2023-02-18T11:34:29.336Z,12.53
2023-02-18T11:37:19.356Z,17.10
2023-02-18T11:39:53.025Z,11.23
2023-02-18T11:42:26.713Z,10.40
2023-02-18T11:45:00.598Z,10.97
2023-02-18T11:47:37.586Z,11.17
2023-02-18T11:50:17.503Z,5.63
2023-02-18T11:52:51.328Z,5.10
2023-02-18T11:55:23.134Z,7.07
2023-02-18T11:58:03.678Z,11.37
2023-02-18T12:00:53.029Z,12.43
2023-02-18T12:04:17.553Z,9.47
2023-02-18T12:07:17.337Z,5.87
2023-02-18T12:09:55.093Z,14.53
2023-02-18T12:12:53.723Z,9.30
2023-02-18T12:16:03.643Z,17.43
2023-02-18T12:18:53.058Z,7.80
2023-02-18T12:22:10.378Z,16.63
2023-02-18T12:24:56.017Z,14.30
2023-02-18T12:28:16.233Z,12.20
2023-02-18T12:31:17.209Z,9.67
2023-02-18T12:34:27.792Z,8.13
2023-02-18T12:37:32.424Z,9.73
2023-02-18T12:40:32.025Z,10.63
2023-02-18T12:43:21.221Z,11.43
2023-02-18T12:46:49.477Z,9.53
2023-02-18T12:49:31.909Z,9.00
2023-02-18T12:52:08.965Z,10.13
2023-02-18T12:55:20.426Z,12.83
2023-02-18T12:58:21.103Z,11.30
2023-02-18T13:01:30.325Z,13.10
2023-02-18T13:04:31.080Z,15.90
2023-02-18T13:07:58.515Z,10.37
2023-02-18T13:10:38.388Z,9.40
2023-02-18T13:13:21.068Z,3.87
2023-02-18T13:16:09.205Z,10.70
2023-02-18T13:19:03.645Z,8.77
2023-02-18T13:21:35.274Z,7.03
2023-02-18T13:24:11.941Z,10.47
2023-02-18T13:26:50.966Z,8.07
2023-02-18T13:30:00.241Z,5.13
2023-02-18T13:32:59.615Z,5.50
2023-02-18T13:36:16.581Z,3.30
2023-02-18T13:39:19.264Z,5.23
2023-02-18T13:41:51.117Z,4.37
2023-02-18T13:44:24.603Z,3.03
2023-02-18T13:46:59.092Z,1.63
2023-02-18T13:49:38.085Z,4.03
2023-02-18T13:52:07.439Z,6.13
2023-02-18T13:54:46.833Z,2.33
2023-02-18T13:57:22.964Z,3.73
2023-02-18T14:00:06.069Z,2.70
2023-02-18T14:02:37.225Z,3.60
2023-02-18T14:05:40.786Z,1.67
2023-02-18T14:08:39.218Z,1.63
2023-02-18T14:11:13.671Z,0.93
2023-02-18T14:14:27.395Z,1.40
2023-02-18T14:17:22.967Z,1.50
2023-02-18T14:19:59.926Z,1.60
2023-02-18T14:22:50.402Z,1.53
2023-02-18T14:25:39.264Z,0.70
2023-02-18T14:28:36.663Z,0.60
2023-02-18T14:31:14.023Z,1.23
2023-02-18T14:33:59.597Z,3.87
2023-02-18T14:37:24.351Z,0.80
2023-02-18T14:40:36.091Z,0.90
2023-02-18T14:43:59.682Z,0.40
2023-02-18T14:47:09.374Z,1.03
2023-02-18T14:49:59.780Z,4.13
2023-02-18T14:52:48.804Z,1.27
2023-02-18T14:55:28.460Z,1.97
2023-02-18T14:58:16.778Z,0.83
2023-02-18T15:00:47.406Z,1.63
2023-02-18T15:03:20.435Z,0.80
2023-02-18T15:05:51.437Z,1.93
2023-02-18T15:08:26.277Z,0.87
2023-02-18T15:11:06.218Z,1.53
2023-02-18T15:13:44.254Z,1.53
2023-02-18T15:16:34.409Z,0.60
2023-02-18T15:19:13.619Z,0.97
2023-02-18T15:21:53.052Z,4.63
2023-02-18T15:24:38.063Z,0.40
2023-02-18T15:27:21.987Z,1.27
2023-02-18T15:30:08.604Z,0.77
2023-02-18T15:32:53.366Z,0.40
2023-02-18T15:35:29.113Z,0.90
2023-02-18T15:38:01.332Z,0.30
2023-02-18T15:41:02.791Z,0.70
2023-02-18T15:44:28.722Z,0.27
2023-02-18T15:47:38.692Z,0.20
2023-02-18T15:50:35.601Z,1.40
2023-02-18T15:54:00.660Z,1.60
2023-02-18T16:00:42.723Z,4.63
2023-02-18T16:03:42.102Z,0.63
2023-02-18T16:06:35.286Z,0.77
2023-02-18T16:09:29.678Z,0.37
2023-02-18T16:12:03.553Z,1.70
2023-02-18T16:14:50.640Z,1.67
2023-02-18T16:17:26.491Z,0.67
2023-02-18T16:20:22.012Z,0.50
2023-02-18T16:22:58.801Z,0.40
2023-02-18T16:25:51.672Z,0.33
2023-02-18T16:28:34.007Z,0.33
2023-02-18T16:31:09.663Z,0.50
2023-02-18T16:33:40.433Z,0.73
2023-02-18T16:36:16.387Z,0.70
2023-02-18T16:38:49.522Z,0.60
2023-02-18T16:41:20.514Z,0.30
2023-02-18T16:43:54.041Z,0.97
2023-02-18T16:46:24.446Z,1.10
2023-02-18T16:48:56.297Z,1.33
2023-02-18T16:51:35.140Z,0.97
2023-02-18T16:54:03.672Z,1.00
2023-02-18T16:56:36.155Z,0.53
2023-02-18T16:59:05.035Z,0.50
2023-02-18T17:01:38.185Z,0.90
2023-02-18T17:04:07.404Z,2.57
2023-02-18T17:06:35.297Z,4.67
2023-02-18T17:09:15.074Z,1.00
2023-02-18T17:11:52.190Z,0.90
2023-02-18T17:14:22.662Z,0.83
2023-02-18T17:16:54.395Z,0.73
2023-02-18T17:19:22.729Z,0.40
2023-02-18T17:21:50.789Z,0.20
2023-02-18T17:24:19.584Z,2.73
2023-02-18T17:26:47.901Z,1.30
2023-02-18T17:29:15.953Z,1.37
2023-02-18T17:31:47.311Z,2.00
2023-02-18T17:34:27.751Z,2.47
2023-02-18T17:36:55.682Z,3.07
2023-02-18T17:39:24.530Z,3.90
2023-02-18T17:41:52.445Z,2.43
2023-02-18T17:44:24.003Z,4.00
2023-02-18T17:46:55.107Z,3.47
2023-02-18T17:49:23.363Z,2.87
2023-02-18T17:51:52.500Z,2.87
2023-02-18T17:54:25.696Z,2.77
2023-02-18T17:56:55.636Z,5.60
2023-02-18T17:59:23.508Z,5.17
2023-02-18T18:01:51.397Z,5.60
2023-02-18T18:04:19.627Z,5.00
2023-02-18T18:06:47.689Z,5.47
2023-02-18T18:09:15.544Z,4.27
2023-02-18T18:11:44.016Z,3.20
2023-02-18T18:14:15.144Z,4.67
2023-02-18T18:16:43.206Z,4.30
2023-02-18T18:19:11.142Z,3.17
2023-02-18T18:21:39.179Z,3.37
2023-02-18T18:24:07.222Z,2.77
2023-02-18T18:26:35.104Z,2.77
2023-02-18T18:29:02.977Z,2.80
2023-02-18T18:31:32.199Z,1.57
2023-02-18T18:34:01.305Z,4.00
2023-02-18T18:36:29.205Z,3.27
2023-02-18T18:38:57.376Z,1.33
2023-02-18T18:41:25.192Z,1.50
2023-02-18T18:43:53.352Z,2.20
2023-02-18T18:46:21.423Z,2.07
2023-02-18T18:48:49.344Z,1.33
2023-02-18T18:51:25.142Z,2.50
2023-02-18T18:53:52.983Z,1.17
2023-02-18T18:56:21.870Z,3.03
2023-02-18T18:58:51.251Z,1.30
2023-02-18T19:01:26.905Z,2.00
2023-02-18T19:03:55.007Z,2.10
2023-02-18T19:06:23.053Z,2.07
2023-02-18T19:08:50.987Z,1.53
2023-02-18T19:11:18.844Z,1.53
2023-02-18T19:13:46.760Z,1.97
2023-02-18T19:16:30.766Z,0.80
2023-02-18T19:18:58.630Z,2.10
2023-02-18T19:21:26.476Z,2.00
2023-02-18T19:23:54.719Z,1.67
2023-02-18T19:26:23.232Z,3.30
2023-02-18T19:28:51.140Z,1.67
2023-02-18T19:31:23.989Z,3.07
2023-02-18T19:33:59.202Z,1.83
2023-02-18T19:36:27.009Z,3.10
2023-02-18T19:38:54.863Z,2.00
2023-02-18T19:41:22.723Z,2.30
2023-02-18T19:43:50.601Z,2.87
2023-02-18T19:46:19.119Z,2.53
2023-02-18T19:48:52.560Z,2.20
2023-02-18T19:51:24.744Z,2.23
2023-02-18T19:53:52.922Z,3.13
2023-02-18T19:56:21.386Z,2.83
2023-02-18T19:58:49.293Z,3.93
2023-02-18T20:01:18.266Z,4.23
2023-02-18T20:03:47.149Z,3.63
2023-02-18T20:06:19.205Z,4.83
2023-02-18T20:08:47.899Z,4.03
2023-02-18T20:11:16.406Z,3.17
2023-02-18T20:13:44.277Z,2.70
2023-02-18T20:16:12.183Z,3.30
2023-02-18T20:18:40.146Z,3.63
2023-02-18T20:21:12.153Z,3.90
2023-02-18T20:23:41.116Z,3.20
2023-02-18T20:26:12.156Z,4.30
2023-02-18T20:28:40.664Z,3.67
2023-02-18T20:31:13.063Z,3.47
2023-02-18T20:33:42.565Z,3.83
2023-02-18T20:36:14.412Z,3.40
2023-02-18T20:38:42.549Z,5.53
2023-02-18T20:41:14.518Z,5.10
2023-02-18T20:43:42.513Z,3.87
2023-02-18T20:46:17.925Z,4.93
2023-02-18T20:48:46.951Z,4.00
2023-02-18T20:51:20.421Z,4.30
2023-02-18T20:53:49.616Z,6.43
2023-02-18T20:56:21.478Z,6.07
2023-02-18T20:58:49.473Z,5.90
2023-02-18T21:01:18.969Z,5.00
2023-02-18T21:03:48.265Z,5.33
2023-02-18T21:06:20.834Z,5.63
2023-02-18T21:08:53.568Z,7.03
2023-02-18T21:11:26.315Z,5.33
2023-02-18T21:13:57.004Z,5.27
2023-02-18T21:16:28.625Z,6.90
2023-02-18T21:18:56.514Z,7.60
2023-02-18T21:21:24.852Z,7.50
2023-02-18T21:23:53.466Z,4.90
2023-02-18T21:26:26.408Z,6.50
2023-02-18T21:29:01.038Z,6.60
2023-02-18T21:31:39.465Z,6.10
2023-02-18T21:34:11.976Z,5.13
2023-02-18T21:36:41.338Z,6.10
2023-02-18T21:39:11.140Z,7.47
2023-02-18T21:41:41.102Z,8.30
2023-02-18T21:44:10.310Z,5.93
2023-02-18T21:46:39.024Z,6.53
2023-02-18T21:49:10.081Z,4.97
2023-02-18T21:51:58.666Z,4.97
2023-02-18T21:54:47.069Z,7.07
2023-02-18T21:57:19.737Z,6.80
2023-02-18T21:59:50.235Z,6.40
2023-02-18T22:02:30.922Z,5.43
2023-02-18T22:05:02.046Z,4.67
2023-02-18T22:07:30.377Z,5.60
2023-02-18T22:09:58.261Z,5.93
2023-02-18T22:12:26.403Z,5.40
2023-02-18T22:14:54.274Z,4.40
2023-02-18T22:17:22.259Z,5.57
2023-02-18T22:19:50.175Z,5.30
2023-02-18T22:22:18.234Z,4.17
2023-02-18T22:24:46.108Z,5.10
2023-02-18T22:27:15.931Z,5.27
2023-02-18T22:29:43.774Z,4.70
2023-02-18T22:32:11.650Z,3.83
2023-02-18T22:34:40.151Z,5.80
2023-02-18T22:37:08.125Z,4.40
2023-02-18T22:39:36.131Z,4.90
2023-02-18T22:42:04.527Z,5.13
2023-02-18T22:44:32.515Z,4.07
2023-02-18T22:47:00.391Z,4.47
2023-02-18T22:49:28.273Z,4.53
2023-02-18T22:51:56.205Z,4.30
2023-02-18T22:54:24.124Z,5.40
2023-02-18T22:56:53.785Z,4.77
2023-02-18T22:59:21.671Z,3.90
2023-02-18T23:01:49.969Z,4.00
2023-02-18T23:04:20.524Z,4.30
2023-02-18T23:06:49.621Z,5.20
2023-02-18T23:09:25.095Z,4.40
2023-02-18T23:11:58.032Z,4.63
2023-02-18T23:14:28.274Z,5.23
2023-02-18T23:17:13.057Z,5.50
2023-02-18T23:19:43.316Z,4.77
2023-02-18T23:22:15.155Z,5.17
2023-02-18T23:24:45.473Z,4.83
2023-02-18T23:27:15.367Z,5.60
2023-02-18T23:29:43.709Z,4.97
2023-02-18T23:32:11.834Z,7.73
2023-02-18T23:34:39.660Z,5.97
2023-02-18T23:37:07.605Z,6.27
2023-02-18T23:39:36.820Z,6.83
2023-02-18T23:42:04.847Z,6.20
2023-02-18T23:44:32.723Z,5.20
2023-02-18T23:47:00.576Z,4.73
2023-02-18T23:49:28.828Z,6.70
2023-02-18T23:51:58.057Z,7.13
2023-02-18T23:54:26.143Z,9.03
2023-02-18T23:56:54.061Z,5.57
2023-02-18T23:59:22.004Z,6.00
